Time;durP1;ratioP1;P1;durP2;ratioP2;P2;SDS_P1;SDS_P2;PMS_P1;PMS_P2;Temp;Humidity;BMP_temperature;BMP_pressure;BME280_temperature;BME280_humidity;BME280_pressure;Samples;Min_cycle;Max_cycle;Signal;HPM_P1;HPM_P2
2022/05/20 00:00:02;;;;;;;;;;;;;;;;;;351468;28;912;-70
2022/05/20 00:00:13;;;;;;;;;;;;;;;;;;351567;28;848;-70
2022/05/20 00:00:23;;;;;;;;;;;;;;;;;;351421;28;932;-70
2022/05/20 00:00:34;;;;;;;;;;;;;;;;;;351446;28;810;-70
2022/05/20 00:00:46;;;;;;;;;;;;;;;;;;351469;28;1195;-70
2022/05/20 00:00:56;;;;;;;;;;;;;;;;;;351452;28;999;-70
2022/05/20 00:01:08;;;;;;;;;;;;;;;;;;351506;28;815;-70
2022/05/20 00:01:19;;;;;;;;;;;;;;;;;;351545;28;876;-70
2022/05/20 00:01:29;;;;;;;;;;;;;;;;;;351479;28;956;-70
2022/05/20 00:01:39;;;;;;;;;;;;;;;;;;351486;28;940;-70
2022/05/20 00:01:49;;;;;;;;;;;;;;;;;;351444;28;899;-70
2022/05/20 00:01:59;;;;;;;;;;;;;;;;;;351468;28;952;-70
2022/05/20 00:02:10;;;;;;;;;;;;;;;;;;351317;28;1136;-70
2022/05/20 00:02:20;;;;;;;;;;;;;;;;;;351446;28;996;-70
2022/05/20 00:02:30;;;;;;;;;;;;;;;;;;351412;28;951;-70
2022/05/20 00:02:40;;;;;;;;;;;;;;;;;;351468;28;844;-70
2022/05/20 00:02:51;;;;;;;;;;;;;;;;;;350398;28;1951;-70
2022/05/20 00:03:01;;;;;;;;;;;;;;;;;;351420;28;972;-70
2022/05/20 00:03:12;;;;;;;;;;;;;;;;;;351442;28;916;-70
2022/05/20 00:03:22;;;;;;;;;;;;;;;;;;351511;28;892;-70
2022/05/20 00:03:34;;;;;;;;;;;;;;;;;;351444;28;1020;-70
2022/05/20 00:03:45;;;;;;;;;;;;;;;;;;351433;28;996;-70
2022/05/20 00:03:55;;;;;;;;;;;;;;;;;;351477;28;943;-70
2022/05/20 00:04:05;;;;;;;;;;;;;;;;;;351456;28;802;-70
2022/05/20 00:04:15;;;;;;;;;;;;;;;;;;351462;28;912;-70
2022/05/20 00:04:25;;;;;;;;;;;;;;;;;;351493;28;904;-70
2022/05/20 00:04:36;;;;;;;;;;;;;;;;;;351382;28;807;-70
2022/05/20 00:04:46;;;;;;;;;;;;;;;;;;350467;28;1739;-70
2022/05/20 00:04:56;;;;;;;;;;;;;;;;;;350418;28;1446;-70
2022/05/20 00:05:07;;;;;;;;;;;;;;;;;;350099;28;869;-70
2022/05/20 00:05:17;;;;;;;;;;;;;;;;;;350020;28;929;-70
2022/05/20 00:05:28;;;;;;;;;;;;;;;;;;350086;28;770;-70
2022/05/20 00:05:38;;;;;;;;;;;;;;;;;;349802;28;1549;-70
2022/05/20 00:05:49;;;;;;;;;;;;;;;;;;350427;28;1545;-70
2022/05/20 00:05:59;;;;;;;;;;;;;;;;;;351394;28;991;-70
2022/05/20 00:06:10;;;;;;;;;;;;;;;;;;349703;28;1763;-70
2022/05/20 00:06:20;;;;;;;;;;;;;;;;;;350052;28;1052;-70
2022/05/20 00:06:30;;;;;;;;;;;;;;;;;;350078;28;924;-70
2022/05/20 00:06:40;;;;;;;;;;;;;;;;;;349968;28;796;-70
2022/05/20 00:06:51;;;;;;;;;;;;;;;;;;350102;28;909;-70
2022/05/20 00:07:02;;;;;;;;;;;;;;;;;;350042;28;850;-70
2022/05/20 00:07:12;;;;;;;;;;;;;;;;;;350102;28;944;-70
2022/05/20 00:07:22;;;;;;;;;;;;;;;;;;349541;28;1591;-70
2022/05/20 00:07:32;;;;;;;;;;;;;;;;;;350604;28;1441;-70
2022/05/20 00:07:42;;;;;;;;;;;;;;;;;;350752;28;1770;-70
2022/05/20 00:07:53;;;;;;;;;;;;;;;;;;351447;28;975;-70
2022/05/20 00:08:03;;;;;;;;;;;;;;;;;;351414;28;948;-70
2022/05/20 00:08:14;;;;;;;;;;;;;;;;;;351458;28;999;-70
2022/05/20 00:08:24;;;;;;;;;;;;;;;;;;351464;28;927;-70
2022/05/20 00:08:34;;;;;;;;;;;;;;;;;;351498;28;932;-70
2022/05/20 00:08:44;;;;;;;;;;;;;;;;;;351350;28;1075;-70
2022/05/20 00:08:55;;;;;;;;;;;;;;;;;;351374;28;944;-70
2022/05/20 00:09:05;;;;;;;;;;;;;;;;;;351491;28;936;-70
2022/05/20 00:09:15;;;;;;;;;;;;;;;;;;351484;28;1007;-70
2022/05/20 00:09:25;;;;;;;;;;;;;;;;;;351354;28;1043;-70
2022/05/20 00:09:36;;;;;;;;;;;;;;;;;;351441;28;925;-70
2022/05/20 00:09:46;;;;;;;;;;;;;;;;;;351480;28;917;-70
2022/05/20 00:09:56;;;;;;;;;;;;;;;;;;351419;28;960;-70
2022/05/20 00:10:08;;;;;;;;;;;;;;;;;;351415;28;921;-70
2022/05/20 00:10:18;;;;;;;;;;;;;;;;;;351436;28;924;-70
2022/05/20 00:10:29;;;;;;;;;;;;;;;;;;351420;28;1008;-70
2022/05/20 00:10:39;;;;;;;;;;;;;;;;;;351483;28;864;-70
2022/05/20 00:10:53;;;;;;;;;;;;;;;;;;351389;28;817;-70
2022/05/20 00:11:04;;;;;;;;;;;;;;;;;;351451;28;951;-70
2022/05/20 00:11:14;;;;;;;;;;;;;;;;;;351442;28;928;-70
2022/05/20 00:11:24;;;;;;;;;;;;;;;;;;351483;28;814;-70
2022/05/20 00:11:35;;;;;;;;;;;;;;;;;;351456;28;905;-70
2022/05/20 00:11:45;;;;;;;;;;;;;;;;;;351498;28;936;-70
2022/05/20 00:11:55;;;;;;;;;;;;;;;;;;351434;28;928;-70
2022/05/20 00:12:06;;;;;;;;;;;;;;;;;;351454;28;900;-70
2022/05/20 00:12:17;;;;;;;;;;;;;;;;;;351417;28;912;-70
2022/05/20 00:12:28;;;;;;;;;;;;;;;;;;351458;28;1201;-70
2022/05/20 00:12:38;;;;;;;;;;;;;;;;;;351425;28;925;-70
2022/05/20 00:12:49;;;;;;;;;;;;;;;;;;351485;28;920;-70
2022/05/20 00:12:59;;;;;;;;;;;;;;;;;;351358;28;920;-70
2022/05/20 00:13:10;;;;;;;;;;;;;;;;;;351436;28;987;-70
2022/05/20 00:13:25;;;;;;;;;;;;;;;;;;351477;28;952;-70
2022/05/20 00:13:35;;;;;;;;;;;;;;;;;;351484;28;912;-70
2022/05/20 00:13:45;;;;;;;;;;;;;;;;;;351427;28;877;-70
2022/05/20 00:13:55;;;;;;;;;;;;;;;;;;351432;28;849;-70
2022/05/20 00:14:06;;;;;;;;;;;;;;;;;;351493;28;857;-70
2022/05/20 00:14:16;;;;;;;;;;;;;;;;;;351398;28;932;-70
2022/05/20 00:14:26;;;;;;;;;;;;;;;;;;351501;28;829;-70
2022/05/20 00:14:37;;;;;;;;;;;;;;;;;;351429;28;956;-70
2022/05/20 00:14:47;;;;;;;;;;;;;;;;;;351415;28;964;-70
2022/05/20 00:14:57;;;;;;;;;;;;;;;;;;351443;28;936;-70
2022/05/20 00:15:08;;;;;;;;;;;;;;;;;;351419;28;802;-70
2022/05/20 00:15:19;;;;;;;;;;;;;;;;;;351479;28;786;-70
2022/05/20 00:15:30;;;;;;;;;;;;;;;;;;351444;28;868;-70
2022/05/20 00:15:40;;;;;;;;;;;;;;;;;;351490;28;952;-70
2022/05/20 00:15:51;;;;;;;;;;;;;;;;;;351415;28;961;-70
2022/05/20 00:16:01;;;;;;;;;;;;;;;;;;351485;28;991;-70
2022/05/20 00:16:12;;;;;;;;;;;;;;;;;;351475;28;865;-70
2022/05/20 00:16:22;;;;;;;;;;;;;;;;;;351402;28;999;-70
2022/05/20 00:16:35;;;;;;;;;;;;;;;;;;351430;28;901;-70
2022/05/20 00:16:45;;;;;;;;;;;;;;;;;;351502;28;806;-70
2022/05/20 00:16:55;;;;;;;;;;;;;;;;;;351410;28;1039;-70
2022/05/20 00:17:05;;;;;;;;;;;;;;;;;;351401;28;976;-70
2022/05/20 00:17:15;;;;;;;;;;;;;;;;;;351320;28;868;-70
2022/05/20 00:17:26;;;;;;;;;;;;;;;;;;351454;28;963;-70
2022/05/20 00:17:36;;;;;;;;;;;;;;;;;;351407;28;1064;-70
2022/05/20 00:17:46;;;;;;;;;;;;;;;;;;351432;28;916;-70
2022/05/20 00:17:57;;;;;;;;;;;;;;;;;;351471;28;932;-70
2022/05/20 00:18:07;;;;;;;;;;;;;;;;;;351437;28;888;-70
2022/05/20 00:18:18;;;;;;;;;;;;;;;;;;351416;28;991;-70
2022/05/20 00:18:28;;;;;;;;;;;;;;;;;;351431;28;920;-70
2022/05/20 00:18:38;;;;;;;;;;;;;;;;;;351464;28;979;-69
2022/05/20 00:18:49;;;;;;;;;;;;;;;;;;351441;28;825;-70
2022/05/20 00:18:59;;;;;;;;;;;;;;;;;;351395;28;920;-70
2022/05/20 00:19:09;;;;;;;;;;;;;;;;;;351392;28;1070;-70
2022/05/20 00:19:19;;;;;;;;;;;;;;;;;;351319;28;925;-70
2022/05/20 00:19:30;;;;;;;;;;;;;;;;;;351390;28;1137;-70
2022/05/20 00:19:40;;;;;;;;;;;;;;;;;;351436;28;999;-70
2022/05/20 00:19:50;;;;;;;;;;;;;;;;;;351331;28;899;-70
2022/05/20 00:20:02;;;;;;;;;;;;;;;;;;351429;28;913;-70
2022/05/20 00:20:13;;;;;;;;;;;;;;;;;;351489;28;912;-70
2022/05/20 00:20:25;;;;;;;;;;;;;;;;;;351444;28;983;-70
2022/05/20 00:20:35;;;;;;;;;;;;;;;;;;351408;28;1023;-70
2022/05/20 00:20:45;;;;;;;;;;;;;;;;;;351377;28;925;-70
2022/05/20 00:20:56;;;;;;;;;;;;;;;;;;351470;28;782;-70
2022/05/20 00:21:06;;;;;;;;;;;;;;;;;;351429;28;987;-70
2022/05/20 00:21:16;;;;;;;;;;;;;;;;;;351415;28;889;-70
2022/05/20 00:21:27;;;;;;;;;;;;;;;;;;351377;28;932;-70
2022/05/20 00:21:37;;;;;;;;;;;;;;;;;;351238;28;1022;-70
2022/05/20 00:21:47;;;;;;;;;;;;;;;;;;351357;28;1020;-70
2022/05/20 00:21:57;;;;;;;;;;;;;;;;;;351184;28;1719;-70
2022/05/20 00:22:08;;;;;;;;;;;;;;;;;;350937;28;1338;-70
2022/05/20 00:22:18;;;;;;;;;;;;;;;;;;350047;28;987;-70
2022/05/20 00:22:28;;;;;;;;;;;;;;;;;;350016;28;908;-70
2022/05/20 00:22:38;;;;;;;;;;;;;;;;;;350037;28;964;-70
2022/05/20 00:22:49;;;;;;;;;;;;;;;;;;350068;28;876;-70
2022/05/20 00:22:59;;;;;;;;;;;;;;;;;;350075;28;904;-70
2022/05/20 00:23:09;;;;;;;;;;;;;;;;;;350033;28;1023;-70
2022/05/20 00:23:20;;;;;;;;;;;;;;;;;;349975;28;925;-70
2022/05/20 00:23:31;;;;;;;;;;;;;;;;;;350060;28;908;-70
2022/05/20 00:23:41;;;;;;;;;;;;;;;;;;350034;28;952;-70
2022/05/20 00:23:51;;;;;;;;;;;;;;;;;;350073;28;821;-70
2022/05/20 00:24:02;;;;;;;;;;;;;;;;;;350094;28;991;-70
2022/05/20 00:24:12;;;;;;;;;;;;;;;;;;350044;28;853;-70
2022/05/20 00:24:23;;;;;;;;;;;;;;;;;;350048;28;837;-70
2022/05/20 00:24:33;;;;;;;;;;;;;;;;;;350054;28;916;-70
2022/05/20 00:25:48;;;;;;;;;;;;;;;;;;351398;28;937;-70
2022/05/20 00:25:58;;;;;;;;;;;;;;;;;;351413;28;1057;-70
2022/05/20 00:26:08;;;;;;;;;;;;;;;;;;351486;28;845;-70
2022/05/20 00:26:19;;;;;;;;;;;;;;;;;;351435;28;924;-70
2022/05/20 00:26:29;;;;;;;;;;;;;;;;;;351377;28;1253;-70
2022/05/20 00:26:39;;;;;;;;;;;;;;;;;;351360;28;940;-70
2022/05/20 00:26:50;;;;;;;;;;;;;;;;;;351436;28;913;-70
2022/05/20 00:27:01;;;;;;;;;;;;;;;;;;351442;28;924;-70
2022/05/20 00:27:11;;;;;;;;;;;;;;;;;;351467;28;820;-70
2022/05/20 00:27:21;;;;;;;;;;;;;;;;;;351382;28;972;-70
2022/05/20 00:27:31;;;;;;;;;;;;;;;;;;351365;28;916;-70
2022/05/20 00:27:41;;;;;;;;;;;;;;;;;;351386;28;960;-70
2022/05/20 00:27:52;;;;;;;;;;;;;;;;;;351431;28;995;-70
2022/05/20 00:28:02;;;;;;;;;;;;;;;;;;351396;28;979;-70
2022/05/20 00:28:21;;;;;;;;;;;;;;;;;;351416;28;988;-70
2022/05/20 00:28:31;;;;;;;;;;;;;;;;;;351405;28;932;-70
2022/05/20 00:28:46;;;;;;;;;;;;;;;;;;351421;28;986;-70
2022/05/20 00:28:56;;;;;;;;;;;;;;;;;;351437;28;950;-70
2022/05/20 00:29:06;;;;;;;;;;;;;;;;;;351456;28;939;-70
2022/05/20 00:29:18;;;;;;;;;;;;;;;;;;351449;28;793;-70
2022/05/20 00:29:28;;;;;;;;;;;;;;;;;;351391;28;983;-70
2022/05/20 00:29:38;;;;;;;;;;;;;;;;;;351431;28;805;-70
2022/05/20 00:29:48;;;;;;;;;;;;;;;;;;351409;28;956;-70
2022/05/20 00:29:58;;;;;;;;;;;;;;;;;;351448;28;943;-70
2022/05/20 00:30:09;;;;;;;;;;;;;;;;;;351382;28;940;-70
2022/05/20 00:30:19;;;;;;;;;;;;;;;;;;351439;28;908;-70
2022/05/20 00:30:30;;;;;;;;;;;;;;;;;;351416;28;940;-70
2022/05/20 00:30:41;;;;;;;;;;;;;;;;;;351447;28;845;-70
2022/05/20 00:30:53;;;;;;;;;;;;;;;;;;351441;28;901;-70
2022/05/20 00:31:09;;;;;;;;;;;;;;;;;;351413;28;1003;-70
2022/05/20 00:31:21;;;;;;;;;;;;;;;;;;351376;28;1974;-70
2022/05/20 00:31:32;;;;;;;;;;;;;;;;;;351278;28;1008;-70
2022/05/20 00:31:42;;;;;;;;;;;;;;;;;;351466;28;999;-70
2022/05/20 00:31:52;;;;;;;;;;;;;;;;;;351386;28;845;-70
2022/05/20 00:32:02;;;;;;;;;;;;;;;;;;351413;28;983;-70
2022/05/20 00:32:13;;;;;;;;;;;;;;;;;;351332;28;1375;-70
2022/05/20 00:32:23;;;;;;;;;;;;;;;;;;351443;28;896;-70
2022/05/20 00:32:33;;;;;;;;;;;;;;;;;;351413;28;999;-70
2022/05/20 00:32:44;;;;;;;;;;;;;;;;;;351409;28;1047;-70
2022/05/20 00:32:54;;;;;;;;;;;;;;;;;;351392;28;904;-70
2022/05/20 00:33:04;;;;;;;;;;;;;;;;;;351441;28;904;-70
2022/05/20 00:33:15;;;;;;;;;;;;;;;;;;351409;28;912;-70
2022/05/20 00:33:25;;;;;;;;;;;;;;;;;;351441;28;959;-70
2022/05/20 00:33:37;;;;;;;;;;;;;;;;;;351359;28;943;-70
2022/05/20 00:33:48;;;;;;;;;;;;;;;;;;351394;28;975;-70
2022/05/20 00:33:58;;;;;;;;;;;;;;;;;;351412;28;902;-70
2022/05/20 00:34:09;;;;;;;;;;;;;;;;;;351454;28;844;-70
2022/05/20 00:34:19;;;;;;;;;;;;;;;;;;351410;28;841;-70
2022/05/20 00:34:29;;;;;;;;;;;;;;;;;;351441;28;849;-70
2022/05/20 00:34:39;;;;;;;;;;;;;;;;;;351391;28;987;-70
2022/05/20 00:34:49;;;;;;;;;;;;;;;;;;351474;28;900;-70
2022/05/20 00:35:00;;;;;;;;;;;;;;;;;;351432;28;920;-70
2022/05/20 00:35:10;;;;;;;;;;;;;;;;;;351382;28;975;-70
2022/05/20 00:35:22;;;;;;;;;;;;;;;;;;351444;28;813;-70
2022/05/20 00:35:32;;;;;;;;;;;;;;;;;;351431;28;1003;-70
2022/05/20 00:35:43;;;;;;;;;;;;;;;;;;349697;28;1619;-70
2022/05/20 00:35:53;;;;;;;;;;;;;;;;;;351210;28;797;-70
2022/05/20 00:36:04;;;;;;;;;;;;;;;;;;350717;28;1564;-70
2022/05/20 00:36:14;;;;;;;;;;;;;;;;;;350521;28;1564;-70
2022/05/20 00:36:24;;;;;;;;;;;;;;;;;;351403;28;984;-70
2022/05/20 00:36:35;;;;;;;;;;;;;;;;;;351438;28;895;-70
2022/05/20 00:36:45;;;;;;;;;;;;;;;;;;351469;28;887;-70
2022/05/20 00:36:55;;;;;;;;;;;;;;;;;;350583;28;1642;-69
2022/05/20 00:37:05;;;;;;;;;;;;;;;;;;351452;28;900;-70
2022/05/20 00:37:15;;;;;;;;;;;;;;;;;;351431;28;912;-70
2022/05/20 00:37:26;;;;;;;;;;;;;;;;;;351377;28;1003;-70
2022/05/20 00:37:37;;;;;;;;;;;;;;;;;;350624;28;1591;-70
2022/05/20 00:37:47;;;;;;;;;;;;;;;;;;351391;28;840;-70
2022/05/20 00:37:57;;;;;;;;;;;;;;;;;;351400;28;865;-70
2022/05/20 00:38:07;;;;;;;;;;;;;;;;;;351402;28;826;-70
2022/05/20 00:38:17;;;;;;;;;;;;;;;;;;351397;28;955;-70
2022/05/20 00:38:28;;;;;;;;;;;;;;;;;;351424;28;1011;-70
2022/05/20 00:38:38;;;;;;;;;;;;;;;;;;351355;28;869;-70
2022/05/20 00:38:49;;;;;;;;;;;;;;;;;;351424;28;996;-70
2022/05/20 00:38:59;;;;;;;;;;;;;;;;;;351433;28;928;-70
2022/05/20 00:39:09;;;;;;;;;;;;;;;;;;351386;28;932;-70
2022/05/20 00:39:19;;;;;;;;;;;;;;;;;;351391;28;948;-70
2022/05/20 00:39:29;;;;;;;;;;;;;;;;;;351381;28;887;-70
2022/05/20 00:39:40;;;;;;;;;;;;;;;;;;351343;28;995;-70
2022/05/20 00:39:50;;;;;;;;;;;;;;;;;;351458;28;951;-70
2022/05/20 00:40:00;;;;;;;;;;;;;;;;;;351370;28;976;-70
2022/05/20 00:40:12;;;;;;;;;;;;;;;;;;351406;28;924;-70
2022/05/20 00:40:23;;;;;;;;;;;;;;;;;;351402;28;916;-70
2022/05/20 00:40:33;;;;;;;;;;;;;;;;;;351434;28;1007;-70
2022/05/20 00:40:44;;;;;;;;;;;;;;;;;;351394;28;916;-70
2022/05/20 00:40:55;;;;;;;;;;;;;;;;;;351448;28;990;-70
2022/05/20 00:41:07;;;;;;;;;;;;;;;;;;351439;28;998;-70
2022/05/20 00:41:18;;;;;;;;;;;;;;;;;;351387;28;947;-70
2022/05/20 00:41:28;;;;;;;;;;;;;;;;;;351401;28;916;-70
2022/05/20 00:41:39;;;;;;;;;;;;;;;;;;351424;28;924;-70
2022/05/20 00:41:49;;;;;;;;;;;;;;;;;;351421;28;983;-70
2022/05/20 00:42:07;;;;;;;;;;;;;;;;;;351410;28;975;-70
2022/05/20 00:42:18;;;;;;;;;;;;;;;;;;351453;28;1006;-70
2022/05/20 00:42:28;;;;;;;;;;;;;;;;;;351453;28;919;-70
2022/05/20 00:42:39;;;;;;;;;;;;;;;;;;351414;28;1019;-70
2022/05/20 00:42:49;;;;;;;;;;;;;;;;;;351368;28;956;-70
2022/05/20 00:43:22;;;;;;;;;;;;;;;;;;351338;28;1011;-70
2022/05/20 00:43:33;;;;;;;;;;;;;;;;;;345734;28;972;-70
2022/05/20 00:43:44;;;;;;;;;;;;;;;;;;346153;28;1387;-71
2022/05/20 00:43:55;;;;;;;;;;;;;;;;;;351343;28;952;-70
2022/05/20 00:44:05;;;;;;;;;;;;;;;;;;351418;28;888;-70
2022/05/20 00:44:15;;;;;;;;;;;;;;;;;;351344;28;944;-70
2022/05/20 00:44:26;;;;;;;;;;;;;;;;;;351361;28;849;-70
2022/05/20 00:44:36;;;;;;;;;;;;;;;;;;351460;28;979;-70
2022/05/20 00:44:47;;;;;;;;;;;;;;;;;;351347;28;969;-70
2022/05/20 00:44:57;;;;;;;;;;;;;;;;;;351359;28;991;-70
2022/05/20 00:45:08;;;;;;;;;;;;;;;;;;351237;28;1014;-70
2022/05/20 00:45:18;;;;;;;;;;;;;;;;;;351511;28;944;-70
2022/05/20 00:45:28;;;;;;;;;;;;;;;;;;351388;28;980;-70
2022/05/20 00:45:39;;;;;;;;;;;;;;;;;;351369;28;920;-70
2022/05/20 00:45:49;;;;;;;;;;;;;;;;;;351371;28;968;-70
2022/05/20 00:46:01;;;;;;;;;;;;;;;;;;351409;28;908;-70
2022/05/20 00:46:19;;;;;;;;;;;;;;;;;;351392;28;1125;-70
2022/05/20 00:46:29;;;;;;;;;;;;;;;;;;351421;28;923;-70
2022/05/20 00:46:39;;;;;;;;;;;;;;;;;;351356;28;980;-70
2022/05/20 00:46:49;;;;;;;;;;;;;;;;;;351414;28;924;-70
2022/05/20 00:46:59;;;;;;;;;;;;;;;;;;351433;28;905;-70
2022/05/20 00:47:11;;;;;;;;;;;;;;;;;;351396;28;801;-70
2022/05/20 00:47:21;;;;;;;;;;;;;;;;;;351410;28;1051;-70
2022/05/20 00:47:32;;;;;;;;;;;;;;;;;;351382;28;857;-70
2022/05/20 00:47:42;;;;;;;;;;;;;;;;;;351380;28;999;-70
2022/05/20 00:47:52;;;;;;;;;;;;;;;;;;350368;28;1759;-70
2022/05/20 00:48:02;;;;;;;;;;;;;;;;;;351420;28;994;-70
2022/05/20 00:48:13;;;;;;;;;;;;;;;;;;351387;28;960;-70
2022/05/20 00:48:24;;;;;;;;;;;;;;;;;;351413;28;919;-70
2022/05/20 00:48:34;;;;;;;;;;;;;;;;;;351468;28;959;-70
2022/05/20 00:48:46;;;;;;;;;;;;;;;;;;351385;28;947;-70
2022/05/20 00:48:58;;;;;;;;;;;;;;;;;;351408;28;912;-70
2022/05/20 00:49:10;;;;;;;;;;;;;;;;;;351499;28;907;-70
2022/05/20 00:49:21;;;;;;;;;;;;;;;;;;351361;28;928;-70
2022/05/20 00:49:32;;;;;;;;;;;;;;;;;;351260;28;1271;-70
2022/05/20 00:49:48;;;;;;;;;;;;;;;;;;351410;28;936;-70
2022/05/20 00:50:00;;;;;;;;;;;;;;;;;;351418;28;790;-70
2022/05/20 00:50:12;;;;;;;;;;;;;;;;;;351443;28;959;-70
2022/05/20 00:50:23;;;;;;;;;;;;;;;;;;351356;28;951;-70
2022/05/20 00:50:34;;;;;;;;;;;;;;;;;;351339;28;1012;-70
2022/05/20 00:50:48;;;;;;;;;;;;;;;;;;351399;28;774;-70
2022/05/20 00:51:21;;;;;;;;;;;;;;;;;;351427;28;932;-70
2022/05/20 00:51:38;;;;;;;;;;;;;;;;;;347088;28;1011;-70
2022/05/20 00:51:50;;;;;;;;;;;;;;;;;;350417;28;1203;-70
2022/05/20 00:52:01;;;;;;;;;;;;;;;;;;351340;28;1036;-70
2022/05/20 00:52:13;;;;;;;;;;;;;;;;;;351383;28;892;-70
2022/05/20 00:52:26;;;;;;;;;;;;;;;;;;351418;28;983;-70
2022/05/20 00:52:37;;;;;;;;;;;;;;;;;;351337;28;987;-70
2022/05/20 00:52:49;;;;;;;;;;;;;;;;;;351401;28;980;-70
2022/05/20 00:53:00;;;;;;;;;;;;;;;;;;351308;28;873;-70
2022/05/20 00:53:12;;;;;;;;;;;;;;;;;;351416;28;1015;-70
2022/05/20 00:53:23;;;;;;;;;;;;;;;;;;351328;28;1008;-70
2022/05/20 00:53:54;;;;;;;;;;;;;;;;;;351416;28;998;-70
2022/05/20 00:54:07;;;;;;;;;;;;;;;;;;350713;28;1184;-70
2022/05/20 00:54:17;;;;;;;;;;;;;;;;;;351369;28;1098;-70
2022/05/20 00:54:30;;;;;;;;;;;;;;;;;;351411;28;948;-70
2022/05/20 00:54:44;;;;;;;;;;;;;;;;;;351304;28;935;-70
2022/05/20 00:54:57;;;;;;;;;;;;;;;;;;351421;28;919;-70
2022/05/20 00:55:12;;;;;;;;;;;;;;;;;;351382;28;1006;-70
2022/05/20 00:55:23;;;;;;;;;;;;;;;;;;351450;28;983;-70
2022/05/20 00:55:33;;;;;;;;;;;;;;;;;;351389;28;948;-70
2022/05/20 00:55:44;;;;;;;;;;;;;;;;;;351401;28;956;-70
2022/05/20 00:55:54;;;;;;;;;;;;;;;;;;351387;28;1133;-70
2022/05/20 00:56:06;;;;;;;;;;;;;;;;;;351397;28;935;-70
2022/05/20 00:56:19;;;;;;;;;;;;;;;;;;351445;28;833;-70
2022/05/20 00:56:36;;;;;;;;;;;;;;;;;;351367;28;936;-70
2022/05/20 00:56:57;;;;;;;;;;;;;;;;;;351348;28;934;-70
2022/05/20 00:57:20;;;;;;;;;;;;;;;;;;351374;28;876;-70
2022/05/20 00:57:33;;;;;;;;;;;;;;;;;;351444;28;797;-70
2022/05/20 00:57:47;;;;;;;;;;;;;;;;;;351362;28;920;-71
2022/05/20 00:58:00;;;;;;;;;;;;;;;;;;351431;28;1785;-70
2022/05/20 00:58:13;;;;;;;;;;;;;;;;;;351391;28;1197;-70
2022/05/20 00:58:25;;;;;;;;;;;;;;;;;;351364;28;924;-70
2022/05/20 00:58:36;;;;;;;;;;;;;;;;;;351414;28;1033;-70
2022/05/20 00:58:46;;;;;;;;;;;;;;;;;;351380;28;987;-70
2022/05/20 00:58:57;;;;;;;;;;;;;;;;;;351399;28;838;-71
2022/05/20 00:59:08;;;;;;;;;;;;;;;;;;351359;28;976;-70
2022/05/20 00:59:20;;;;;;;;;;;;;;;;;;351431;28;920;-70
2022/05/20 00:59:33;;;;;;;;;;;;;;;;;;351340;28;1363;-70
2022/05/20 00:59:48;;;;;;;;;;;;;;;;;;351434;28;798;-70
2022/05/20 01:00:18;;;;;;;;;;;;;;;;;;351225;28;1003;-70
2022/05/20 01:00:30;;;;;;;;;;;;;;;;;;351381;28;857;-70
2022/05/20 01:00:43;;;;;;;;;;;;;;;;;;351193;28;999;-70
2022/05/20 01:00:54;;;;;;;;;;;;;;;;;;351251;28;896;-70
2022/05/20 01:01:04;;;;;;;;;;;;;;;;;;351314;28;932;-70
2022/05/20 01:01:15;;;;;;;;;;;;;;;;;;351401;28;983;-70
2022/05/20 01:01:26;;;;;;;;;;;;;;;;;;351354;28;952;-70
2022/05/20 01:01:37;;;;;;;;;;;;;;;;;;351404;28;994;-70
2022/05/20 01:01:49;;;;;;;;;;;;;;;;;;351359;28;908;-70
2022/05/20 01:02:03;;;;;;;;;;;;;;;;;;351354;28;869;-70
2022/05/20 01:02:20;;;;;;;;;;;;;;;;;;351194;28;1453;-70
2022/05/20 01:02:31;;;;;;;;;;;;;;;;;;351392;28;1014;-70
2022/05/20 01:02:42;;;;;;;;;;;;;;;;;;351400;28;1027;-70
2022/05/20 01:02:54;;;;;;;;;;;;;;;;;;351425;28;920;-70
2022/05/20 01:03:07;;;;;;;;;;;;;;;;;;351289;28;1003;-70
2022/05/20 01:03:20;;;;;;;;;;;;;;;;;;351420;28;841;-70
2022/05/20 01:03:30;;;;;;;;;;;;;;;;;;351372;28;912;-70
2022/05/20 01:03:42;;;;;;;;;;;;;;;;;;351429;28;916;-70
2022/05/20 01:03:53;;;;;;;;;;;;;;;;;;351305;28;983;-70
2022/05/20 01:04:05;;;;;;;;;;;;;;;;;;351442;28;844;-70
2022/05/20 01:04:16;;;;;;;;;;;;;;;;;;351408;28;916;-70
2022/05/20 01:04:27;;;;;;;;;;;;;;;;;;351411;28;924;-70
2022/05/20 01:04:38;;;;;;;;;;;;;;;;;;351361;28;797;-70
2022/05/20 01:04:49;;;;;;;;;;;;;;;;;;351419;28;1011;-70
2022/05/20 01:05:03;;;;;;;;;;;;;;;;;;351345;28;861;-70
2022/05/20 01:05:23;;;;;;;;;;;;;;;;;;351343;28;888;-70
2022/05/20 01:05:35;;;;;;;;;;;;;;;;;;349984;28;1035;-70
2022/05/20 01:05:47;;;;;;;;;;;;;;;;;;350021;28;818;-70
2022/05/20 01:05:57;;;;;;;;;;;;;;;;;;349995;28;996;-70
2022/05/20 01:06:08;;;;;;;;;;;;;;;;;;349940;28;912;-70
2022/05/20 01:06:19;;;;;;;;;;;;;;;;;;349977;28;924;-70
2022/05/20 01:06:29;;;;;;;;;;;;;;;;;;350015;28;861;-70
2022/05/20 01:06:39;;;;;;;;;;;;;;;;;;349988;28;826;-70
2022/05/20 01:06:50;;;;;;;;;;;;;;;;;;349975;28;1028;-70
2022/05/20 01:07:00;;;;;;;;;;;;;;;;;;349983;28;913;-70
2022/05/20 01:07:11;;;;;;;;;;;;;;;;;;349922;28;920;-70
2022/05/20 01:07:21;;;;;;;;;;;;;;;;;;349942;28;924;-70
2022/05/20 01:07:36;;;;;;;;;;;;;;;;;;350038;28;821;-70
2022/05/20 01:07:46;;;;;;;;;;;;;;;;;;349933;28;991;-70
2022/05/20 01:07:57;;;;;;;;;;;;;;;;;;350012;28;971;-70
2022/05/20 01:08:07;;;;;;;;;;;;;;;;;;350026;28;905;-70
2022/05/20 01:08:22;;;;;;;;;;;;;;;;;;349963;28;857;-70
2022/05/20 01:08:32;;;;;;;;;;;;;;;;;;350022;28;971;-70
2022/05/20 01:08:43;;;;;;;;;;;;;;;;;;350010;28;944;-70
2022/05/20 01:08:53;;;;;;;;;;;;;;;;;;349952;28;939;-70
2022/05/20 01:09:03;;;;;;;;;;;;;;;;;;350007;28;905;-70
2022/05/20 01:09:13;;;;;;;;;;;;;;;;;;349936;28;854;-70
2022/05/20 01:09:23;;;;;;;;;;;;;;;;;;349897;28;968;-70
2022/05/20 01:09:37;;;;;;;;;;;;;;;;;;349980;28;782;-70
2022/05/20 01:09:47;;;;;;;;;;;;;;;;;;350011;28;964;-70
2022/05/20 01:09:57;;;;;;;;;;;;;;;;;;349916;28;1012;-70
2022/05/20 01:10:08;;;;;;;;;;;;;;;;;;349949;28;1019;-70
2022/05/20 01:10:19;;;;;;;;;;;;;;;;;;349949;28;842;-70
2022/05/20 01:10:29;;;;;;;;;;;;;;;;;;349938;28;1019;-70
2022/05/20 01:10:40;;;;;;;;;;;;;;;;;;349985;28;975;-70
2022/05/20 01:10:50;;;;;;;;;;;;;;;;;;349527;28;1798;-70
2022/05/20 01:11:00;;;;;;;;;;;;;;;;;;350870;28;1343;-70
2022/05/20 01:11:10;;;;;;;;;;;;;;;;;;349959;28;920;-70
2022/05/20 01:11:21;;;;;;;;;;;;;;;;;;349811;28;1906;-70
2022/05/20 01:11:31;;;;;;;;;;;;;;;;;;349926;28;1016;-70
2022/05/20 01:11:41;;;;;;;;;;;;;;;;;;350026;28;932;-70
2022/05/20 01:11:52;;;;;;;;;;;;;;;;;;350037;28;956;-70
2022/05/20 01:12:02;;;;;;;;;;;;;;;;;;349968;28;913;-70
2022/05/20 01:12:12;;;;;;;;;;;;;;;;;;350004;28;857;-70
2022/05/20 01:12:24;;;;;;;;;;;;;;;;;;350001;28;920;-70
2022/05/20 01:12:35;;;;;;;;;;;;;;;;;;349959;28;859;-70
2022/05/20 01:12:45;;;;;;;;;;;;;;;;;;350034;28;836;-70
2022/05/20 01:12:56;;;;;;;;;;;;;;;;;;350030;28;904;-69
2022/05/20 01:13:07;;;;;;;;;;;;;;;;;;349936;28;912;-70
2022/05/20 01:13:18;;;;;;;;;;;;;;;;;;349965;28;1016;-70
2022/05/20 01:13:30;;;;;;;;;;;;;;;;;;349884;28;1008;-70
2022/05/20 01:13:40;;;;;;;;;;;;;;;;;;349964;28;932;-70
2022/05/20 01:13:51;;;;;;;;;;;;;;;;;;350007;28;991;-70
2022/05/20 01:14:01;;;;;;;;;;;;;;;;;;350005;28;850;-70
2022/05/20 01:14:18;;;;;;;;;;;;;;;;;;349965;28;909;-70
2022/05/20 01:14:28;;;;;;;;;;;;;;;;;;349970;28;900;-70
2022/05/20 01:14:39;;;;;;;;;;;;;;;;;;350029;28;897;-70
2022/05/20 01:14:49;;;;;;;;;;;;;;;;;;349944;28;909;-70
2022/05/20 01:14:59;;;;;;;;;;;;;;;;;;349984;28;941;-70
2022/05/20 01:15:10;;;;;;;;;;;;;;;;;;350017;28;873;-70
2022/05/20 01:15:20;;;;;;;;;;;;;;;;;;349948;28;1853;-70
2022/05/20 01:15:31;;;;;;;;;;;;;;;;;;349920;28;948;-70
2022/05/20 01:15:42;;;;;;;;;;;;;;;;;;350037;28;829;-70
2022/05/20 01:15:53;;;;;;;;;;;;;;;;;;349958;28;979;-70
2022/05/20 01:16:07;;;;;;;;;;;;;;;;;;349923;28;1035;-70
2022/05/20 01:16:17;;;;;;;;;;;;;;;;;;349956;28;932;-70
2022/05/20 01:16:28;;;;;;;;;;;;;;;;;;349994;28;912;-70
2022/05/20 01:16:38;;;;;;;;;;;;;;;;;;349986;28;940;-70
2022/05/20 01:16:49;;;;;;;;;;;;;;;;;;349949;28;927;-70
2022/05/20 01:16:59;;;;;;;;;;;;;;;;;;349999;28;1099;-70
2022/05/20 01:17:09;;;;;;;;;;;;;;;;;;350006;28;920;-70
2022/05/20 01:17:20;;;;;;;;;;;;;;;;;;349984;28;930;-70
2022/05/20 01:17:30;;;;;;;;;;;;;;;;;;349990;28;976;-70
2022/05/20 01:17:41;;;;;;;;;;;;;;;;;;349987;28;885;-70
2022/05/20 01:17:52;;;;;;;;;;;;;;;;;;349978;28;972;-70
2022/05/20 01:18:03;;;;;;;;;;;;;;;;;;349987;28;857;-70
2022/05/20 01:18:13;;;;;;;;;;;;;;;;;;349954;28;924;-70
2022/05/20 01:18:24;;;;;;;;;;;;;;;;;;349836;28;1151;-70
2022/05/20 01:18:36;;;;;;;;;;;;;;;;;;349976;28;920;-70
2022/05/20 01:18:47;;;;;;;;;;;;;;;;;;349945;28;936;-70
2022/05/20 01:18:57;;;;;;;;;;;;;;;;;;349993;28;967;-70
2022/05/20 01:19:12;;;;;;;;;;;;;;;;;;349979;28;924;-70
2022/05/20 01:19:42;;;;;;;;;;;;;;;;;;350021;28;964;-70
2022/05/20 01:19:54;;;;;;;;;;;;;;;;;;349436;28;1484;-70
2022/05/20 01:20:08;;;;;;;;;;;;;;;;;;349929;28;1090;-70
2022/05/20 01:20:21;;;;;;;;;;;;;;;;;;349971;28;928;-70
2022/05/20 01:20:32;;;;;;;;;;;;;;;;;;349961;28;920;-70
2022/05/20 01:20:44;;;;;;;;;;;;;;;;;;349959;28;884;-70
2022/05/20 01:20:55;;;;;;;;;;;;;;;;;;350022;28;841;-70
2022/05/20 01:21:06;;;;;;;;;;;;;;;;;;350030;28;873;-70
2022/05/20 01:21:16;;;;;;;;;;;;;;;;;;350102;28;888;-70
2022/05/20 01:21:27;;;;;;;;;;;;;;;;;;349939;28;944;-70
2022/05/20 01:21:37;;;;;;;;;;;;;;;;;;349988;28;925;-70